sensor_id;sensor_type;location;lat;lon;timestamp;pressure;altitude;pressure_sealevel;temperature;humidity
9139;BME280;4604;48.616;9.548;2023-07-31T00:02:26;96977.47;;;14.89;86.28
9139;BME280;4604;48.616;9.548;2023-07-31T00:04:53;96996.94;;;15.06;85.85
9139;BME280;4604;48.616;9.548;2023-07-31T00:07:21;96993.44;;;15.06;85.87
9139;BME280;4604;48.616;9.548;2023-07-31T00:09:48;96994.13;;;15.08;85.84
9139;BME280;4604;48.616;9.548;2023-07-31T00:12:14;96993.59;;;15.04;86.30
9139;BME280;4604;48.616;9.548;2023-07-31T00:14:41;96988.97;;;14.98;86.64
9139;BME280;4604;48.616;9.548;2023-07-31T00:17:08;96994.44;;;14.96;86.81
9139;BME280;4604;48.616;9.548;2023-07-31T00:19:35;96987.81;;;14.92;86.81
9139;BME280;4604;48.616;9.548;2023-07-31T00:22:02;96988.63;;;14.93;87.27
9139;BME280;4604;48.616;9.548;2023-07-31T00:24:30;96991.44;;;14.91;87.26
9139;BME280;4604;48.616;9.548;2023-07-31T00:26:56;97001.41;;;14.89;87.38
9139;BME280;4604;48.616;9.548;2023-07-31T00:29:23;97000.56;;;14.89;87.01
9139;BME280;4604;48.616;9.548;2023-07-31T00:31:51;96997.91;;;14.97;86.76
9139;BME280;4604;48.616;9.548;2023-07-31T00:34:18;96989.47;;;14.85;87.06
9139;BME280;4604;48.616;9.548;2023-07-31T00:36:45;96994.59;;;14.87;87.33
9139;BME280;4604;48.616;9.548;2023-07-31T00:39:11;96996.09;;;14.89;87.27
9139;BME280;4604;48.616;9.548;2023-07-31T00:41:40;96992.25;;;14.92;87.15
9139;BME280;4604;48.616;9.548;2023-07-31T00:44:08;96997.75;;;14.90;87.04
9139;BME280;4604;48.616;9.548;2023-07-31T00:46:35;97003.91;;;14.83;87.89
9139;BME280;4604;48.616;9.548;2023-07-31T00:49:01;97003.06;;;14.82;87.65
9139;BME280;4604;48.616;9.548;2023-07-31T00:51:28;97011.53;;;14.86;87.73
9139;BME280;4604;48.616;9.548;2023-07-31T00:53:55;97003.91;;;14.83;87.66
9139;BME280;4604;48.616;9.548;2023-07-31T00:56:23;96988.13;;;14.81;87.33
9139;BME280;4604;48.616;9.548;2023-07-31T00:58:51;97003.06;;;14.90;86.74
9139;BME280;4604;48.616;9.548;2023-07-31T01:01:18;96999.91;;;14.87;86.76
9139;BME280;4604;48.616;9.548;2023-07-31T01:03:45;96993.91;;;14.85;86.79
9139;BME280;4604;48.616;9.548;2023-07-31T01:06:17;96986.81;;;14.85;86.37
9139;BME280;4604;48.616;9.548;2023-07-31T01:08:51;96980.81;;;14.91;85.86
9139;BME280;4604;48.616;9.548;2023-07-31T01:11:26;96955.72;;;14.77;86.14
9139;BME280;4604;48.616;9.548;2023-07-31T01:13:55;96954.41;;;14.82;85.85
9139;BME280;4604;48.616;9.548;2023-07-31T01:16:23;96974.34;;;14.94;85.92
9139;BME280;4604;48.616;9.548;2023-07-31T01:18:49;96977.00;;;14.94;85.67
9139;BME280;4604;48.616;9.548;2023-07-31T01:21:24;96971.00;;;14.92;85.53
9139;BME280;4604;48.616;9.548;2023-07-31T01:24:21;96970.84;;;14.93;85.45
9139;BME280;4604;48.616;9.548;2023-07-31T01:26:55;96967.69;;;14.98;85.51
9139;BME280;4604;48.616;9.548;2023-07-31T01:29:29;96961.38;;;14.99;85.50
9139;BME280;4604;48.616;9.548;2023-07-31T01:32:01;96967.19;;;14.94;85.67
9139;BME280;4604;48.616;9.548;2023-07-31T01:34:29;96923.84;;;14.69;86.10
9139;BME280;4604;48.616;9.548;2023-07-31T01:36:56;96961.06;;;14.86;86.37
9139;BME280;4604;48.616;9.548;2023-07-31T01:39:23;96951.75;;;14.82;86.56
9139;BME280;4604;48.616;9.548;2023-07-31T01:41:51;96928.81;;;14.72;86.68
9139;BME280;4604;48.616;9.548;2023-07-31T01:44:18;96941.44;;;14.87;86.65
9139;BME280;4604;48.616;9.548;2023-07-31T01:46:45;96944.63;;;14.90;86.11
9139;BME280;4604;48.616;9.548;2023-07-31T01:49:11;96941.97;;;14.90;86.11
9139;BME280;4604;48.616;9.548;2023-07-31T01:51:38;96946.78;;;14.95;85.92
9139;BME280;4604;48.616;9.548;2023-07-31T01:54:05;96935.97;;;14.96;85.77
9139;BME280;4604;48.616;9.548;2023-07-31T01:56:31;96928.00;;;14.96;85.81
9139;BME280;4604;48.616;9.548;2023-07-31T01:58:59;96929.00;;;15.04;85.23
9139;BME280;4604;48.616;9.548;2023-07-31T02:01:26;96921.34;;;15.01;84.99
9139;BME280;4604;48.616;9.548;2023-07-31T02:03:53;96941.09;;;15.06;84.89
9139;BME280;4604;48.616;9.548;2023-07-31T02:06:19;96940.97;;;15.08;84.41
9139;BME280;4604;48.616;9.548;2023-07-31T02:08:47;96929.97;;;15.11;84.14
9139;BME280;4604;48.616;9.548;2023-07-31T02:11:14;96939.28;;;15.15;83.77
9139;BME280;4604;48.616;9.548;2023-07-31T02:13:41;96936.47;;;15.08;83.14
9139;BME280;4604;48.616;9.548;2023-07-31T02:16:09;96916.53;;;15.04;82.42
9139;BME280;4604;48.616;9.548;2023-07-31T02:18:35;96943.91;;;15.21;82.30
9139;BME280;4604;48.616;9.548;2023-07-31T02:21:02;96934.78;;;15.32;80.91
9139;BME280;4604;48.616;9.548;2023-07-31T02:23:29;96924.78;;;15.42;80.32
9139;BME280;4604;48.616;9.548;2023-07-31T02:25:56;96922.78;;;15.36;80.21
9139;BME280;4604;48.616;9.548;2023-07-31T02:28:23;96924.63;;;15.35;80.68
9139;BME280;4604;48.616;9.548;2023-07-31T02:30:50;96921.50;;;15.32;80.28
9139;BME280;4604;48.616;9.548;2023-07-31T02:33:18;96916.47;;;15.29;80.56
9139;BME280;4604;48.616;9.548;2023-07-31T02:35:45;96925.78;;;15.41;80.25
9139;BME280;4604;48.616;9.548;2023-07-31T02:38:12;96904.72;;;15.15;81.80
9139;BME280;4604;48.616;9.548;2023-07-31T02:40:39;96914.69;;;15.29;82.54
9139;BME280;4604;48.616;9.548;2023-07-31T02:43:06;96915.53;;;15.22;83.29
9139;BME280;4604;48.616;9.548;2023-07-31T02:45:33;96912.66;;;15.39;82.12
9139;BME280;4604;48.616;9.548;2023-07-31T02:48:00;96902.56;;;15.18;82.67
9139;BME280;4604;48.616;9.548;2023-07-31T02:50:28;96906.91;;;15.03;84.02
9139;BME280;4604;48.616;9.548;2023-07-31T02:52:55;96906.91;;;14.87;84.96
9139;BME280;4604;48.616;9.548;2023-07-31T02:55:21;96914.69;;;14.80;86.04
9139;BME280;4604;48.616;9.548;2023-07-31T02:57:48;96912.91;;;14.81;85.98
9139;BME280;4604;48.616;9.548;2023-07-31T03:00:15;96916.53;;;14.63;86.99
9139;BME280;4604;48.616;9.548;2023-07-31T03:02:41;96917.72;;;14.61;87.66
9139;BME280;4604;48.616;9.548;2023-07-31T03:05:08;96915.69;;;14.63;87.21
9139;BME280;4604;48.616;9.548;2023-07-31T03:07:36;96914.03;;;14.53;87.73
9139;BME280;4604;48.616;9.548;2023-07-31T03:10:03;96916.47;;;14.47;88.38
9139;BME280;4604;48.616;9.548;2023-07-31T03:12:30;96915.63;;;14.38;89.42
9139;BME280;4604;48.616;9.548;2023-07-31T03:14:57;96911.66;;;14.34;90.03
9139;BME280;4604;48.616;9.548;2023-07-31T03:17:24;96905.34;;;14.27;90.58
9139;BME280;4604;48.616;9.548;2023-07-31T03:19:50;96900.66;;;14.21;91.15
9139;BME280;4604;48.616;9.548;2023-07-31T03:22:17;96895.50;;;14.11;91.88
9139;BME280;4604;48.616;9.548;2023-07-31T03:24:45;96898.97;;;14.11;92.45
9139;BME280;4604;48.616;9.548;2023-07-31T03:27:11;96886.38;;;14.05;92.90
9139;BME280;4604;48.616;9.548;2023-07-31T03:29:38;96889.66;;;13.99;93.00
9139;BME280;4604;48.616;9.548;2023-07-31T03:32:05;96888.34;;;13.95;93.52
9139;BME280;4604;48.616;9.548;2023-07-31T03:34:32;96863.25;;;13.81;94.01
9139;BME280;4604;48.616;9.548;2023-07-31T03:36:59;96880.16;;;13.80;94.98
9139;BME280;4604;48.616;9.548;2023-07-31T03:39:26;96885.81;;;13.85;95.05
9139;BME280;4604;48.616;9.548;2023-07-31T03:41:54;96888.78;;;13.82;95.70
9139;BME280;4604;48.616;9.548;2023-07-31T03:44:20;96877.00;;;13.77;95.68
9139;BME280;4604;48.616;9.548;2023-07-31T03:46:47;96894.75;;;13.84;95.93
9139;BME280;4604;48.616;9.548;2023-07-31T03:49:14;96889.78;;;13.81;96.10
9139;BME280;4604;48.616;9.548;2023-07-31T03:51:40;96891.94;;;13.78;96.06
9139;BME280;4604;48.616;9.548;2023-07-31T03:54:07;96894.25;;;13.81;95.86
9139;BME280;4604;48.616;9.548;2023-07-31T03:56:34;96900.88;;;13.85;95.49
9139;BME280;4604;48.616;9.548;2023-07-31T03:59:02;96903.59;;;13.93;94.45
9139;BME280;4604;48.616;9.548;2023-07-31T04:01:29;96886.31;;;13.89;94.64
9139;BME280;4604;48.616;9.548;2023-07-31T04:03:56;96915.56;;;14.05;93.42
9139;BME280;4604;48.616;9.548;2023-07-31T04:06:22;96914.22;;;14.01;93.57
9139;BME280;4604;48.616;9.548;2023-07-31T04:08:49;96893.31;;;13.90;93.34
9139;BME280;4604;48.616;9.548;2023-07-31T04:11:16;96900.78;;;14.03;93.33
9139;BME280;4604;48.616;9.548;2023-07-31T04:13:42;96892.16;;;14.01;93.57
9139;BME280;4604;48.616;9.548;2023-07-31T04:16:10;96896.81;;;14.07;93.43
9139;BME280;4604;48.616;9.548;2023-07-31T04:18:37;96876.22;;;13.93;93.76
9139;BME280;4604;48.616;9.548;2023-07-31T04:21:04;96864.59;;;13.85;93.35
9139;BME280;4604;48.616;9.548;2023-07-31T04:23:31;96907.78;;;14.12;93.55
9139;BME280;4604;48.616;9.548;2023-07-31T04:25:57;96908.13;;;14.17;93.14
9139;BME280;4604;48.616;9.548;2023-07-31T04:28:24;96907.47;;;14.15;92.82
9139;BME280;4604;48.616;9.548;2023-07-31T04:30:51;96880.06;;;14.06;92.86
9139;BME280;4604;48.616;9.548;2023-07-31T04:33:19;96906.66;;;14.31;92.66
9139;BME280;4604;48.616;9.548;2023-07-31T04:35:50;96899.69;;;14.30;92.76
9139;BME280;4604;48.616;9.548;2023-07-31T04:38:17;96894.09;;;14.49;91.96
9139;BME280;4604;48.616;9.548;2023-07-31T04:40:44;96894.41;;;14.46;91.74
9139;BME280;4604;48.616;9.548;2023-07-31T04:43:11;96889.47;;;14.60;90.68
9139;BME280;4604;48.616;9.548;2023-07-31T04:45:37;96878.69;;;14.61;90.83
9139;BME280;4604;48.616;9.548;2023-07-31T04:48:04;96885.00;;;14.68;90.73
9139;BME280;4604;48.616;9.548;2023-07-31T04:50:32;96877.69;;;14.70;90.68
9139;BME280;4604;48.616;9.548;2023-07-31T04:52:59;96871.38;;;14.71;90.45
9139;BME280;4604;48.616;9.548;2023-07-31T04:55:26;96879.50;;;14.86;90.15
9139;BME280;4604;48.616;9.548;2023-07-31T04:57:52;96877.00;;;14.93;89.92
9139;BME280;4604;48.616;9.548;2023-07-31T05:00:19;96873.00;;;14.97;89.90
9139;BME280;4604;48.616;9.548;2023-07-31T05:02:46;96881.16;;;15.04;89.81
9139;BME280;4604;48.616;9.548;2023-07-31T05:05:13;96876.97;;;15.09;89.57
9139;BME280;4604;48.616;9.548;2023-07-31T05:07:41;96871.66;;;15.09;89.32
9139;BME280;4604;48.616;9.548;2023-07-31T05:10:08;96886.28;;;15.22;88.64
9139;BME280;4604;48.616;9.548;2023-07-31T05:12:35;96876.94;;;15.26;88.35
9139;BME280;4604;48.616;9.548;2023-07-31T05:15:02;96889.72;;;15.38;87.61
9139;BME280;4604;48.616;9.548;2023-07-31T05:17:29;96872.56;;;15.41;87.43
9139;BME280;4604;48.616;9.548;2023-07-31T05:19:55;96875.75;;;15.45;87.32
9139;BME280;4604;48.616;9.548;2023-07-31T05:22:22;96875.53;;;15.54;87.32
9139;BME280;4604;48.616;9.548;2023-07-31T05:24:50;96881.13;;;15.68;86.89
9139;BME280;4604;48.616;9.548;2023-07-31T05:27:17;96886.47;;;15.76;86.47
9139;BME280;4604;48.616;9.548;2023-07-31T05:29:44;96872.66;;;15.72;86.00
9139;BME280;4604;48.616;9.548;2023-07-31T05:32:11;96888.06;;;15.93;85.54
9139;BME280;4604;48.616;9.548;2023-07-31T05:34:38;96888.53;;;15.97;85.26
9139;BME280;4604;48.616;9.548;2023-07-31T05:37:05;96871.38;;;15.99;85.11
9139;BME280;4604;48.616;9.548;2023-07-31T05:39:32;96887.47;;;16.14;84.94
9139;BME280;4604;48.616;9.548;2023-07-31T05:42:00;96879.47;;;16.14;84.67
9139;BME280;4604;48.616;9.548;2023-07-31T05:44:26;96888.72;;;16.26;84.05
9139;BME280;4604;48.616;9.548;2023-07-31T05:46:53;96894.16;;;16.33;83.31
9139;BME280;4604;48.616;9.548;2023-07-31T05:49:20;96885.16;;;16.34;81.28
9139;BME280;4604;48.616;9.548;2023-07-31T05:51:46;96887.03;;;16.25;81.24
9139;BME280;4604;48.616;9.548;2023-07-31T05:54:13;96893.09;;;16.42;80.97
9139;BME280;4604;48.616;9.548;2023-07-31T05:56:40;96892.03;;;16.52;81.08
9139;BME280;4604;48.616;9.548;2023-07-31T05:59:08;96890.44;;;16.65;80.25
9139;BME280;4604;48.616;9.548;2023-07-31T06:01:35;96880.94;;;16.63;80.79
9139;BME280;4604;48.616;9.548;2023-07-31T06:04:02;96885.94;;;16.66;81.45
9139;BME280;4604;48.616;9.548;2023-07-31T06:06:29;96886.31;;;16.86;79.39
9139;BME280;4604;48.616;9.548;2023-07-31T06:08:55;96885.38;;;16.79;75.84
9139;BME280;4604;48.616;9.548;2023-07-31T06:11:24;96865.53;;;16.81;74.56
9139;BME280;4604;48.616;9.548;2023-07-31T06:13:50;96870.44;;;16.93;73.57
9139;BME280;4604;48.616;9.548;2023-07-31T06:16:18;96880.22;;;17.15;73.66
9139;BME280;4604;48.616;9.548;2023-07-31T06:18:51;96875.16;;;17.35;74.09
9139;BME280;4604;48.616;9.548;2023-07-31T06:21:18;96869.28;;;17.54;73.47
9139;BME280;4604;48.616;9.548;2023-07-31T06:23:45;96868.25;;;17.55;71.66
9139;BME280;4604;48.616;9.548;2023-07-31T06:26:11;96880.97;;;17.68;71.79
9139;BME280;4604;48.616;9.548;2023-07-31T06:28:38;96871.94;;;17.69;71.61
9139;BME280;4604;48.616;9.548;2023-07-31T06:31:05;96879.84;;;17.77;67.18
9139;BME280;4604;48.616;9.548;2023-07-31T06:33:33;96881.16;;;17.82;67.81
9139;BME280;4604;48.616;9.548;2023-07-31T06:35:59;96886.59;;;17.88;67.47
9139;BME280;4604;48.616;9.548;2023-07-31T06:38:26;96881.91;;;17.90;66.15
9139;BME280;4604;48.616;9.548;2023-07-31T06:40:53;96869.50;;;17.83;65.66
9139;BME280;4604;48.616;9.548;2023-07-31T06:43:21;96873.69;;;17.92;66.10
9139;BME280;4604;48.616;9.548;2023-07-31T06:45:47;96887.78;;;18.01;66.05
9139;BME280;4604;48.616;9.548;2023-07-31T06:48:16;96888.22;;;18.04;65.82
9139;BME280;4604;48.616;9.548;2023-07-31T06:50:44;96862.44;;;17.96;65.30
9139;BME280;4604;48.616;9.548;2023-07-31T06:53:11;96886.16;;;18.21;64.96
9139;BME280;4604;48.616;9.548;2023-07-31T06:55:38;96878.66;;;18.10;63.29
9139;BME280;4604;48.616;9.548;2023-07-31T06:58:04;96885.47;;;18.12;63.12
9139;BME280;4604;48.616;9.548;2023-07-31T07:00:31;96888.03;;;18.06;63.87
9139;BME280;4604;48.616;9.548;2023-07-31T07:02:58;96873.47;;;18.08;62.18
9139;BME280;4604;48.616;9.548;2023-07-31T07:05:25;96879.94;;;18.35;62.55
9139;BME280;4604;48.616;9.548;2023-07-31T07:07:53;96861.47;;;18.19;61.32
9139;BME280;4604;48.616;9.548;2023-07-31T07:10:23;96874.50;;;18.44;62.36
9139;BME280;4604;48.616;9.548;2023-07-31T07:12:50;96874.50;;;18.44;60.34
9139;BME280;4604;48.616;9.548;2023-07-31T07:15:16;96882.00;;;18.55;60.16
9139;BME280;4604;48.616;9.548;2023-07-31T07:17:43;96883.84;;;18.54;60.37
9139;BME280;4604;48.616;9.548;2023-07-31T07:20:10;96889.53;;;18.66;60.59
9139;BME280;4604;48.616;9.548;2023-07-31T07:22:37;96882.34;;;18.88;60.78
9139;BME280;4604;48.616;9.548;2023-07-31T07:25:05;96889.94;;;19.13;58.81
9139;BME280;4604;48.616;9.548;2023-07-31T07:27:33;96884.91;;;19.31;58.97
9139;BME280;4604;48.616;9.548;2023-07-31T07:29:59;96889.78;;;19.14;56.97
9139;BME280;4604;48.616;9.548;2023-07-31T07:32:26;96892.59;;;19.41;58.37
9139;BME280;4604;48.616;9.548;2023-07-31T07:34:52;96884.16;;;19.37;56.71
9139;BME280;4604;48.616;9.548;2023-07-31T07:37:19;96897.44;;;19.52;56.93
9139;BME280;4604;48.616;9.548;2023-07-31T07:39:46;96882.75;;;19.41;56.53
9139;BME280;4604;48.616;9.548;2023-07-31T07:42:14;96878.50;;;19.88;56.45
9139;BME280;4604;48.616;9.548;2023-07-31T07:44:41;96867.81;;;19.95;56.19
9139;BME280;4604;48.616;9.548;2023-07-31T07:47:07;96873.50;;;19.79;55.42
9139;BME280;4604;48.616;9.548;2023-07-31T07:49:37;96876.00;;;19.52;56.26
9139;BME280;4604;48.616;9.548;2023-07-31T07:52:04;96870.84;;;19.51;57.88
9139;BME280;4604;48.616;9.548;2023-07-31T07:54:31;96868.16;;;19.51;56.81
9139;BME280;4604;48.616;9.548;2023-07-31T07:56:58;96866.06;;;19.39;56.70
9139;BME280;4604;48.616;9.548;2023-07-31T07:59:26;96863.94;;;19.00;57.66
9139;BME280;4604;48.616;9.548;2023-07-31T08:01:53;96859.22;;;19.02;58.49
9139;BME280;4604;48.616;9.548;2023-07-31T08:04:20;96864.59;;;19.09;58.69
9139;BME280;4604;48.616;9.548;2023-07-31T08:06:46;96869.53;;;19.05;58.89
9139;BME280;4604;48.616;9.548;2023-07-31T08:09:13;96866.88;;;19.12;59.46
9139;BME280;4604;48.616;9.548;2023-07-31T08:11:40;96860.19;;;19.22;58.23
9139;BME280;4604;48.616;9.548;2023-07-31T08:14:06;96872.50;;;19.52;57.58
9139;BME280;4604;48.616;9.548;2023-07-31T08:16:35;96876.28;;;19.64;57.41
9139;BME280;4604;48.616;9.548;2023-07-31T08:19:01;96879.53;;;19.94;57.09
9139;BME280;4604;48.616;9.548;2023-07-31T08:21:28;96882.22;;;19.87;57.00
9139;BME280;4604;48.616;9.548;2023-07-31T08:23:55;96874.78;;;19.89;56.61
9139;BME280;4604;48.616;9.548;2023-07-31T08:26:21;96870.56;;;20.15;56.93
9139;BME280;4604;48.616;9.548;2023-07-31T08:28:48;96866.38;;;19.99;55.17
9139;BME280;4604;48.616;9.548;2023-07-31T08:31:15;96866.34;;;19.86;56.85
9139;BME280;4604;48.616;9.548;2023-07-31T08:33:43;96848.19;;;19.81;56.36
9139;BME280;4604;48.616;9.548;2023-07-31T08:36:09;96848.34;;;19.73;57.63
9139;BME280;4604;48.616;9.548;2023-07-31T08:38:36;96834.25;;;19.64;57.64
9139;BME280;4604;48.616;9.548;2023-07-31T08:41:03;96846.38;;;19.95;56.45
9139;BME280;4604;48.616;9.548;2023-07-31T08:43:31;96849.94;;;20.16;56.35
9139;BME280;4604;48.616;9.548;2023-07-31T08:45:59;96844.41;;;20.17;55.71
9139;BME280;4604;48.616;9.548;2023-07-31T08:48:26;96840.03;;;20.03;56.38
9139;BME280;4604;48.616;9.548;2023-07-31T08:50:56;96844.41;;;20.17;57.26
9139;BME280;4604;48.616;9.548;2023-07-31T08:53:22;96819.28;;;20.31;57.04
9139;BME280;4604;48.616;9.548;2023-07-31T08:55:49;96835.56;;;20.43;56.05
9139;BME280;4604;48.616;9.548;2023-07-31T08:58:17;96818.06;;;20.54;56.59
9139;BME280;4604;48.616;9.548;2023-07-31T09:00:46;96823.47;;;20.67;55.69
9139;BME280;4604;48.616;9.548;2023-07-31T09:03:14;96821.41;;;20.76;55.86
9139;BME280;4604;48.616;9.548;2023-07-31T09:05:43;96822.00;;;21.31;54.68
9139;BME280;4604;48.616;9.548;2023-07-31T09:08:12;96815.38;;;21.34;53.45
9139;BME280;4604;48.616;9.548;2023-07-31T09:10:41;96820.44;;;21.75;52.54
9139;BME280;4604;48.616;9.548;2023-07-31T09:13:08;96818.88;;;21.21;52.47
9139;BME280;4604;48.616;9.548;2023-07-31T09:15:35;96820.31;;;21.30;53.73
9139;BME280;4604;48.616;9.548;2023-07-31T09:18:03;96827.75;;;21.28;52.56
9139;BME280;4604;48.616;9.548;2023-07-31T09:20:30;96817.91;;;20.82;52.90
9139;BME280;4604;48.616;9.548;2023-07-31T09:23:05;96806.13;;;20.97;53.14
9139;BME280;4604;48.616;9.548;2023-07-31T09:25:34;96803.47;;;20.57;53.22
9139;BME280;4604;48.616;9.548;2023-07-31T09:28:01;96802.84;;;20.61;52.69
9139;BME280;4604;48.616;9.548;2023-07-31T09:30:28;96791.69;;;20.91;52.89
9139;BME280;4604;48.616;9.548;2023-07-31T09:33:00;96813.56;;;21.08;52.82
9139;BME280;4604;48.616;9.548;2023-07-31T09:35:29;96817.06;;;21.15;52.93
9139;BME280;4604;48.616;9.548;2023-07-31T09:37:58;96819.09;;;21.26;52.54
9139;BME280;4604;48.616;9.548;2023-07-31T09:40:27;96808.91;;;21.62;52.93
9139;BME280;4604;48.616;9.548;2023-07-31T09:42:57;96797.19;;;21.94;52.30
9139;BME280;4604;48.616;9.548;2023-07-31T09:45:25;96808.28;;;22.11;50.00
9139;BME280;4604;48.616;9.548;2023-07-31T09:47:52;96819.66;;;21.55;48.14
9139;BME280;4604;48.616;9.548;2023-07-31T09:50:20;96804.47;;;21.15;48.54
9139;BME280;4604;48.616;9.548;2023-07-31T09:52:47;96792.00;;;21.48;49.27
9139;BME280;4604;48.616;9.548;2023-07-31T09:55:14;96796.78;;;21.32;50.12
9139;BME280;4604;48.616;9.548;2023-07-31T09:57:43;96795.09;;;21.38;49.28
9139;BME280;4604;48.616;9.548;2023-07-31T10:00:13;96792.41;;;21.38;49.91
9139;BME280;4604;48.616;9.548;2023-07-31T10:02:41;96778.81;;;21.40;49.96
9139;BME280;4604;48.616;9.548;2023-07-31T10:05:08;96764.84;;;21.76;49.97
9139;BME280;4604;48.616;9.548;2023-07-31T10:07:37;96746.94;;;21.63;49.67
9139;BME280;4604;48.616;9.548;2023-07-31T10:10:07;96757.50;;;21.51;49.02
9139;BME280;4604;48.616;9.548;2023-07-31T10:12:35;96760.03;;;21.40;49.47
9139;BME280;4604;48.616;9.548;2023-07-31T10:15:03;96756.13;;;21.29;49.98
9139;BME280;4604;48.616;9.548;2023-07-31T10:17:31;96752.44;;;21.75;49.96
9139;BME280;4604;48.616;9.548;2023-07-31T10:19:59;96754.47;;;21.79;48.81
9139;BME280;4604;48.616;9.548;2023-07-31T10:22:29;96744.28;;;21.50;49.47
9139;BME280;4604;48.616;9.548;2023-07-31T10:24:58;96737.25;;;21.94;49.55
9139;BME280;4604;48.616;9.548;2023-07-31T10:27:25;96745.63;;;21.72;48.87
9139;BME280;4604;48.616;9.548;2023-07-31T10:29:53;96732.47;;;21.64;48.93
9139;BME280;4604;48.616;9.548;2023-07-31T10:32:21;96710.25;;;21.44;49.01
9139;BME280;4604;48.616;9.548;2023-07-31T10:34:51;96732.75;;;21.88;48.71
9139;BME280;4604;48.616;9.548;2023-07-31T10:37:22;96729.22;;;21.87;48.76
9139;BME280;4604;48.616;9.548;2023-07-31T10:39:56;96728.06;;;21.76;49.28
9139;BME280;4604;48.616;9.548;2023-07-31T10:42:33;96737.22;;;22.00;49.35
9139;BME280;4604;48.616;9.548;2023-07-31T10:45:02;96729.00;;;22.27;49.42
9139;BME280;4604;48.616;9.548;2023-07-31T10:47:29;96730.69;;;21.90;49.40
9139;BME280;4604;48.616;9.548;2023-07-31T10:50:13;96708.75;;;22.50;48.84
9139;BME280;4604;48.616;9.548;2023-07-31T10:52:39;96704.81;;;22.27;48.01
9139;BME280;4604;48.616;9.548;2023-07-31T10:55:27;96701.88;;;21.97;48.02
9139;BME280;4604;48.616;9.548;2023-07-31T10:57:54;96706.28;;;22.16;48.64
9139;BME280;4604;48.616;9.548;2023-07-31T11:00:24;96694.66;;;22.29;48.52
9139;BME280;4604;48.616;9.548;2023-07-31T11:02:59;96712.91;;;22.20;48.68
9139;BME280;4604;48.616;9.548;2023-07-31T11:05:43;96705.03;;;21.87;49.21
9139;BME280;4604;48.616;9.548;2023-07-31T11:08:11;96700.97;;;22.10;49.17
9139;BME280;4604;48.616;9.548;2023-07-31T11:10:38;96694.59;;;22.04;48.76
9139;BME280;4604;48.616;9.548;2023-07-31T11:13:05;96704.38;;;22.30;48.96
9139;BME280;4604;48.616;9.548;2023-07-31T11:15:31;96690.16;;;22.16;49.45
9139;BME280;4604;48.616;9.548;2023-07-31T11:18:00;96694.69;;;22.48;50.34
9139;BME280;4604;48.616;9.548;2023-07-31T11:20:29;96698.38;;;22.78;48.00
9139;BME280;4604;48.616;9.548;2023-07-31T11:23:00;96697.13;;;22.99;47.45
9139;BME280;4604;48.616;9.548;2023-07-31T11:25:29;96700.88;;;23.35;47.80
9139;BME280;4604;48.616;9.548;2023-07-31T11:27:56;96695.59;;;23.59;46.36
9139;BME280;4604;48.616;9.548;2023-07-31T11:30:22;96694.59;;;23.90;45.90
9139;BME280;4604;48.616;9.548;2023-07-31T11:32:49;96684.91;;;23.52;45.89
9139;BME280;4604;48.616;9.548;2023-07-31T11:35:17;96675.22;;;23.63;45.08
9139;BME280;4604;48.616;9.548;2023-07-31T11:37:44;96686.06;;;24.05;45.36
9139;BME280;4604;48.616;9.548;2023-07-31T11:40:12;96692.34;;;23.87;45.47
9139;BME280;4604;48.616;9.548;2023-07-31T11:42:39;96679.66;;;23.57;46.10
9139;BME280;4604;48.616;9.548;2023-07-31T11:45:07;96692.03;;;23.95;46.01
9139;BME280;4604;48.616;9.548;2023-07-31T11:47:35;96687.38;;;24.26;45.20
9139;BME280;4604;48.616;9.548;2023-07-31T11:50:02;96689.53;;;23.63;45.13
9139;BME280;4604;48.616;9.548;2023-07-31T11:52:41;96692.09;;;23.58;45.14
9139;BME280;4604;48.616;9.548;2023-07-31T11:55:09;96682.19;;;23.22;45.00
9139;BME280;4604;48.616;9.548;2023-07-31T11:57:39;96671.63;;;23.02;46.32
9139;BME280;4604;48.616;9.548;2023-07-31T12:00:08;96664.69;;;23.13;46.80
9139;BME280;4604;48.616;9.548;2023-07-31T12:02:36;96676.59;;;22.80;47.40
9139;BME280;4604;48.616;9.548;2023-07-31T12:05:05;96673.00;;;22.68;46.46
9139;BME280;4604;48.616;9.548;2023-07-31T12:07:43;96662.72;;;23.01;47.28
9139;BME280;4604;48.616;9.548;2023-07-31T12:10:10;96659.22;;;23.01;47.53
9139;BME280;4604;48.616;9.548;2023-07-31T12:12:38;96652.38;;;22.80;46.88
9139;BME280;4604;48.616;9.548;2023-07-31T12:15:14;96653.66;;;22.96;47.42
9139;BME280;4604;48.616;9.548;2023-07-31T12:17:41;96653.78;;;23.07;47.33
9139;BME280;4604;48.616;9.548;2023-07-31T12:20:08;96647.56;;;23.07;47.39
9139;BME280;4604;48.616;9.548;2023-07-31T12:22:35;96640.81;;;23.16;46.73
9139;BME280;4604;48.616;9.548;2023-07-31T12:25:02;96642.63;;;23.04;47.59
9139;BME280;4604;48.616;9.548;2023-07-31T12:27:33;96630.34;;;22.71;47.82
9139;BME280;4604;48.616;9.548;2023-07-31T12:30:01;96634.28;;;22.87;48.19
9139;BME280;4604;48.616;9.548;2023-07-31T12:32:30;96628.91;;;22.69;47.55
9139;BME280;4604;48.616;9.548;2023-07-31T12:34:59;96632.13;;;22.59;48.18
9139;BME280;4604;48.616;9.548;2023-07-31T12:37:26;96622.16;;;22.41;49.00
9139;BME280;4604;48.616;9.548;2023-07-31T12:39:53;96612.59;;;22.45;50.13
9139;BME280;4604;48.616;9.548;2023-07-31T12:42:19;96606.84;;;22.60;49.84
9139;BME280;4604;48.616;9.548;2023-07-31T12:44:46;96611.81;;;22.63;50.50
9139;BME280;4604;48.616;9.548;2023-07-31T12:47:14;96611.06;;;22.93;50.33
9139;BME280;4604;48.616;9.548;2023-07-31T12:49:41;96601.22;;;23.05;48.91
9139;BME280;4604;48.616;9.548;2023-07-31T12:52:07;96593.81;;;23.31;48.36
9139;BME280;4604;48.616;9.548;2023-07-31T12:54:34;96591.78;;;23.44;47.84
9139;BME280;4604;48.616;9.548;2023-07-31T12:57:01;96576.81;;;23.60;47.65
9139;BME280;4604;48.616;9.548;2023-07-31T12:59:28;96568.63;;;23.67;48.22
9139;BME280;4604;48.616;9.548;2023-07-31T13:01:55;96577.09;;;23.40;47.33
9139;BME280;4604;48.616;9.548;2023-07-31T13:04:31;96583.66;;;23.33;47.99
9139;BME280;4604;48.616;9.548;2023-07-31T13:07:01;96574.50;;;23.03;50.22
9139;BME280;4604;48.616;9.548;2023-07-31T13:09:29;96569.28;;;22.72;52.09
9139;BME280;4604;48.616;9.548;2023-07-31T13:11:56;96556.63;;;22.72;51.46
9139;BME280;4604;48.616;9.548;2023-07-31T13:14:22;96560.84;;;22.68;54.48
9139;BME280;4604;48.616;9.548;2023-07-31T13:16:49;96562.09;;;22.84;52.95
9139;BME280;4604;48.616;9.548;2023-07-31T13:19:15;96561.19;;;22.72;52.55
9139;BME280;4604;48.616;9.548;2023-07-31T13:21:43;96551.72;;;22.88;52.42
9139;BME280;4604;48.616;9.548;2023-07-31T13:24:10;96557.59;;;22.96;51.41
9139;BME280;4604;48.616;9.548;2023-07-31T13:26:37;96551.94;;;23.04;51.79